createdAt,value
2018-04-10T00:01:15.500Z,10.90
2018-04-10T00:03:43.899Z,8.83
2018-04-10T00:06:12.305Z,7.17
2018-04-10T00:08:40.757Z,9.30
2018-04-10T00:11:09.194Z,11.70
2018-04-10T00:13:37.618Z,8.53
2018-04-10T00:16:06.031Z,10.10
2018-04-10T00:18:34.446Z,6.43
2018-04-10T00:21:02.850Z,6.80
2018-04-10T00:23:31.303Z,8.67
2018-04-10T00:25:59.718Z,10.73
2018-04-10T00:28:28.478Z,8.73
2018-04-10T00:30:56.903Z,8.77
2018-04-10T00:33:25.380Z,9.83
2018-04-10T00:35:53.762Z,8.90
2018-04-10T00:38:22.207Z,10.03
2018-04-10T00:40:50.630Z,5.87
2018-04-10T00:43:19.067Z,7.73
2018-04-10T00:45:47.510Z,12.70
2018-04-10T00:48:15.945Z,11.73
2018-04-10T00:50:44.396Z,10.77
2018-04-10T00:53:36.885Z,16.43
2018-04-10T00:56:05.297Z,7.07
2018-04-10T00:58:33.777Z,9.03
2018-04-10T01:01:02.160Z,11.30
2018-04-10T01:03:30.567Z,13.40
2018-04-10T01:05:58.988Z,11.43
2018-04-10T01:08:27.447Z,8.87
2018-04-10T01:10:55.843Z,10.57
2018-04-10T01:13:24.274Z,10.83
2018-04-10T01:15:52.668Z,10.87
2018-04-10T01:18:21.087Z,11.33
2018-04-10T01:20:49.506Z,14.30
2018-04-10T01:23:18.286Z,14.80
2018-04-10T01:25:46.734Z,9.07
2018-04-10T01:28:15.204Z,8.07
2018-04-10T01:30:43.627Z,7.63
2018-04-10T01:33:12.078Z,10.00
2018-04-10T01:35:40.555Z,10.03
2018-04-10T01:38:08.979Z,11.03
2018-04-10T01:40:37.423Z,9.03
2018-04-10T01:43:05.857Z,7.93
2018-04-10T01:45:34.305Z,9.30
2018-04-10T01:48:02.691Z,10.17
2018-04-10T01:50:31.187Z,9.80
2018-04-10T01:52:59.622Z,10.53
2018-04-10T01:55:28.040Z,8.27
2018-04-10T01:57:56.428Z,7.03
2018-04-10T02:00:24.869Z,11.87
2018-04-10T02:02:53.326Z,12.03
2018-04-10T02:05:21.769Z,9.67
2018-04-10T02:07:50.140Z,5.93
2018-04-10T02:10:18.618Z,8.40
2018-04-10T02:12:47.278Z,12.23
2018-04-10T02:15:15.736Z,10.67
2018-04-10T02:17:44.198Z,11.63
2018-04-10T02:20:12.629Z,8.47
2018-04-10T02:22:41.070Z,10.60
2018-04-10T02:25:09.560Z,13.93
2018-04-10T02:27:37.984Z,7.53
2018-04-10T02:30:06.464Z,15.57
2018-04-10T02:32:34.922Z,8.13
2018-04-10T02:35:03.582Z,10.27
2018-04-10T02:37:32.014Z,10.57
2018-04-10T02:40:00.516Z,9.93
2018-04-10T02:42:28.994Z,13.53
2018-04-10T02:44:57.499Z,11.47
2018-04-10T02:47:25.911Z,12.97
2018-04-10T02:49:54.306Z,9.20
2018-04-10T02:52:22.766Z,16.50
2018-04-10T02:54:51.237Z,14.10
2018-04-10T02:57:19.837Z,10.10
2018-04-10T02:59:48.295Z,13.27
2018-04-10T03:02:16.767Z,16.00
2018-04-10T03:04:45.332Z,22.80
2018-04-10T03:07:13.792Z,13.67
2018-04-10T03:09:42.334Z,20.70
2018-04-10T03:12:10.807Z,21.77
2018-04-10T03:14:39.256Z,17.97
2018-04-10T03:17:07.667Z,14.67
2018-04-10T03:19:36.175Z,17.77
2018-04-10T03:22:04.743Z,23.60
2018-04-10T03:24:33.229Z,18.07
2018-04-10T03:27:01.670Z,20.27
2018-04-10T03:29:30.249Z,24.50
2018-04-10T03:31:58.702Z,23.37
2018-04-10T03:34:27.217Z,18.90
2018-04-10T03:36:55.682Z,23.13
2018-04-10T03:39:24.180Z,12.57
2018-04-10T03:41:52.660Z,20.57
2018-04-10T03:44:21.151Z,16.10
2018-04-10T03:46:49.576Z,13.60
2018-04-10T03:49:18.068Z,12.40
2018-04-10T03:51:46.511Z,25.27
2018-04-10T03:54:14.986Z,17.37
2018-04-10T03:56:43.420Z,19.07
2018-04-10T03:59:11.831Z,21.33
2018-04-10T04:01:40.283Z,14.60
2018-04-10T04:04:08.713Z,15.80
2018-04-10T04:06:37.122Z,16.57
2018-04-10T04:09:05.625Z,15.53
2018-04-10T04:11:34.095Z,22.87
2018-04-10T04:14:02.580Z,21.50
2018-04-10T04:16:43.019Z,16.77
2018-04-10T04:19:23.392Z,24.60
2018-04-10T04:22:04.113Z,23.17
2018-04-10T04:24:32.562Z,25.20
2018-04-10T04:27:00.942Z,26.97
2018-04-10T04:29:29.496Z,34.87
2018-04-10T04:31:57.926Z,16.27
2018-04-10T04:34:26.361Z,29.97
2018-04-10T04:36:54.793Z,44.90
2018-04-10T04:39:23.191Z,32.37
2018-04-10T04:41:51.659Z,34.63
2018-04-10T04:44:20.104Z,23.63
2018-04-10T04:46:48.555Z,58.63
2018-04-10T04:49:17.013Z,16.03
2018-04-10T04:51:45.387Z,25.70
2018-04-10T04:54:13.871Z,35.17
2018-04-10T04:56:42.293Z,31.93
2018-04-10T04:59:10.790Z,19.53
2018-04-10T05:01:39.176Z,30.47
2018-04-10T05:04:07.564Z,41.23
2018-04-10T05:06:36.060Z,36.67
2018-04-10T05:09:07.477Z,32.33
2018-04-10T05:11:35.927Z,33.40
2018-04-10T05:14:04.382Z,43.23
2018-04-10T05:16:32.809Z,31.90
2018-04-10T05:19:01.539Z,22.63
2018-04-10T05:21:29.985Z,24.77
2018-04-10T05:23:58.447Z,42.53
2018-04-10T05:26:26.892Z,26.57
2018-04-10T05:28:55.326Z,29.90
2018-04-10T05:31:23.727Z,31.40
2018-04-10T05:33:52.165Z,44.03
2018-04-10T05:36:20.619Z,39.30
2018-04-10T05:38:49.103Z,31.43
2018-04-10T05:41:17.794Z,49.33
2018-04-10T05:43:46.312Z,48.23
2018-04-10T05:46:14.711Z,34.83
2018-04-10T05:48:43.163Z,22.10
2018-04-10T05:51:11.543Z,31.17
2018-04-10T05:53:39.996Z,22.83
2018-04-10T05:56:08.404Z,30.83
2018-04-10T05:58:36.845Z,31.43
2018-04-10T06:01:05.294Z,23.17
2018-04-10T06:03:33.719Z,28.17
2018-04-10T06:06:02.184Z,18.17
2018-04-10T06:08:30.632Z,24.90
2018-04-10T06:10:59.044Z,17.37
2018-04-10T06:13:27.478Z,11.47
2018-04-10T06:15:55.875Z,14.27
2018-04-10T06:18:24.330Z,31.37
2018-04-10T06:20:52.796Z,17.00
2018-04-10T06:23:21.256Z,28.03
2018-04-10T06:25:49.881Z,14.47
2018-04-10T06:28:18.351Z,18.57
2018-04-10T06:30:46.723Z,17.17
2018-04-10T06:33:15.124Z,22.43
2018-04-10T06:35:43.559Z,17.77
2018-04-10T06:38:12.002Z,17.90
2018-04-10T06:40:43.694Z,34.90
2018-04-10T06:43:12.146Z,37.90
2018-04-10T06:45:40.583Z,29.77
2018-04-10T06:48:09.052Z,31.53
2018-04-10T06:50:37.462Z,31.90
2018-04-10T06:53:05.930Z,23.57
2018-04-10T06:55:34.398Z,42.20
2018-04-10T06:58:02.795Z,36.70
2018-04-10T07:00:31.246Z,34.50
2018-04-10T07:02:59.739Z,20.83
2018-04-10T07:05:28.187Z,28.30
2018-04-10T07:07:56.660Z,48.60
2018-04-10T07:10:25.462Z,28.77
2018-04-10T07:12:54.274Z,36.07
2018-04-10T07:15:22.743Z,26.43
2018-04-10T07:17:51.196Z,25.30
2018-04-10T07:20:19.671Z,27.30
2018-04-10T07:22:48.080Z,30.73
2018-04-10T07:25:16.534Z,36.53
2018-04-10T07:27:44.994Z,27.97
2018-04-10T07:30:13.631Z,28.40
2018-04-10T07:32:42.354Z,35.03
2018-04-10T07:35:10.889Z,28.70
2018-04-10T07:37:39.312Z,25.37
2018-04-10T07:40:07.843Z,30.97
2018-04-10T07:42:36.238Z,33.00
2018-04-10T07:45:04.731Z,36.00
2018-04-10T07:47:33.555Z,30.93
2018-04-10T07:50:01.975Z,41.40
2018-04-10T07:52:30.385Z,28.97
2018-04-10T07:54:59.265Z,39.87
2018-04-10T07:57:27.727Z,27.37
2018-04-10T07:59:56.248Z,21.03
2018-04-10T08:02:25.056Z,27.13
2018-04-10T08:04:53.510Z,30.27
2018-04-10T08:07:21.931Z,24.40
2018-04-10T08:09:50.625Z,23.13
2018-04-10T08:12:19.054Z,25.47
2018-04-10T08:14:47.517Z,36.67
2018-04-10T08:17:16.176Z,23.00
2018-04-10T08:19:44.566Z,34.90
2018-04-10T08:22:13.024Z,29.37
2018-04-10T08:24:41.499Z,29.07
2018-04-10T08:27:09.971Z,21.13
2018-04-10T08:29:38.395Z,26.87
2018-04-10T08:32:06.839Z,30.50
2018-04-10T08:34:35.299Z,31.10
2018-04-10T08:37:03.726Z,23.83
2018-04-10T08:39:32.152Z,24.17
2018-04-10T08:42:00.762Z,20.13
2018-04-10T08:44:29.167Z,13.50
2018-04-10T08:46:57.580Z,13.47
2018-04-10T08:49:25.968Z,16.97
2018-04-10T08:51:54.359Z,20.53
2018-04-10T08:54:22.796Z,18.53
2018-04-10T08:56:51.259Z,25.83
2018-04-10T08:59:19.667Z,30.87
2018-04-10T09:01:48.119Z,18.17
2018-04-10T09:04:16.527Z,16.67
2018-04-10T09:06:44.951Z,26.90
2018-04-10T09:09:13.415Z,20.77
2018-04-10T09:11:42.049Z,18.53
2018-04-10T09:14:10.596Z,12.07
2018-04-10T09:16:39.044Z,8.97
2018-04-10T09:19:07.520Z,13.40
2018-04-10T09:21:35.972Z,18.40
2018-04-10T09:24:04.416Z,12.87
2018-04-10T09:26:32.850Z,10.67
2018-04-10T09:29:01.251Z,6.30
2018-04-10T09:31:29.691Z,12.00
2018-04-10T09:33:58.095Z,8.60
2018-04-10T09:36:26.527Z,6.73
2018-04-10T09:38:55.063Z,11.13
2018-04-10T09:41:23.553Z,7.47
2018-04-10T09:43:51.936Z,11.60
2018-04-10T09:46:20.365Z,14.37
2018-04-10T09:48:48.799Z,11.17
2018-04-10T09:51:17.443Z,8.87
2018-04-10T09:53:45.907Z,9.23
2018-04-10T09:56:14.362Z,9.80
2018-04-10T09:58:42.867Z,10.83
2018-04-10T10:01:11.298Z,8.80
2018-04-10T10:03:39.723Z,14.93
2018-04-10T10:06:08.131Z,16.73
2018-04-10T10:08:36.621Z,15.97
2018-04-10T10:11:05.167Z,13.80
2018-04-10T10:13:33.691Z,11.20
2018-04-10T10:16:02.151Z,21.50
2018-04-10T10:18:30.564Z,17.63
2018-04-10T10:20:59.048Z,12.33
2018-04-10T10:23:27.481Z,14.73
2018-04-10T10:25:55.955Z,21.40
2018-04-10T10:28:24.335Z,15.73
2018-04-10T10:30:52.734Z,16.00
2018-04-10T10:33:21.155Z,14.93
2018-04-10T10:35:49.579Z,19.27
2018-04-10T10:38:18.023Z,8.10
2018-04-10T10:40:46.442Z,9.57
2018-04-10T10:43:14.927Z,6.83
2018-04-10T10:45:43.363Z,7.37
2018-04-10T10:48:11.800Z,9.07
2018-04-10T10:50:40.239Z,26.87
2018-04-10T10:53:08.717Z,10.30
2018-04-10T10:55:37.199Z,28.17
2018-04-10T10:58:05.773Z,8.38
2018-04-10T11:00:34.214Z,14.48
2018-04-10T11:03:03.016Z,15.30
2018-04-10T11:05:31.474Z,13.98
2018-04-10T11:07:59.900Z,12.88
2018-04-10T11:10:28.313Z,11.35
2018-04-10T11:12:56.771Z,18.95
2018-04-10T11:15:25.215Z,9.90
2018-04-10T11:17:53.635Z,10.75
2018-04-10T11:20:22.114Z,8.45
2018-04-10T11:22:50.498Z,14.30
2018-04-10T11:25:18.887Z,14.70
2018-04-10T11:27:47.348Z,13.68
2018-04-10T11:30:15.775Z,12.05
2018-04-10T11:32:44.188Z,16.33
2018-04-10T11:35:12.656Z,11.40
2018-04-10T11:37:41.105Z,16.42
2018-04-10T11:40:09.640Z,17.10
2018-04-10T11:42:38.062Z,16.95
2018-04-10T11:45:06.552Z,7.78
2018-04-10T11:47:34.995Z,9.10
2018-04-10T11:50:03.497Z,19.48
2018-04-10T11:52:31.941Z,12.45
2018-04-10T11:55:00.393Z,10.32
2018-04-10T11:57:28.886Z,12.85
2018-04-10T11:59:57.353Z,13.65
2018-04-10T12:02:26.007Z,17.83
2018-04-10T12:04:54.455Z,11.82
2018-04-10T12:07:22.903Z,14.10
2018-04-10T12:09:51.296Z,12.23
2018-04-10T12:12:19.790Z,23.25
2018-04-10T12:14:48.175Z,14.10
2018-04-10T12:17:16.963Z,14.13
2018-04-10T12:19:45.434Z,21.33
2018-04-10T12:22:13.931Z,21.40
2018-04-10T12:24:42.691Z,9.13
2018-04-10T12:27:11.144Z,13.82
2018-04-10T12:29:39.616Z,12.52
2018-04-10T12:32:08.062Z,14.00
2018-04-10T12:34:36.492Z,17.10
2018-04-10T12:37:04.972Z,17.02
2018-04-10T12:39:33.393Z,11.95
2018-04-10T12:42:01.790Z,13.52
2018-04-10T12:44:30.251Z,12.15
2018-04-10T12:46:58.670Z,23.40
2018-04-10T12:49:27.059Z,13.65
2018-04-10T12:51:55.502Z,11.77
2018-04-10T12:54:23.930Z,7.40
2018-04-10T12:56:52.371Z,16.70
2018-04-10T12:59:20.825Z,14.32
2018-04-10T13:01:49.216Z,11.20
2018-04-10T13:04:17.662Z,29.63
2018-04-10T13:06:46.110Z,24.65
2018-04-10T13:09:14.524Z,16.58
2018-04-10T13:11:42.987Z,22.83
2018-04-10T13:14:11.412Z,21.98
2018-04-10T13:16:40.170Z,8.85
2018-04-10T13:19:08.573Z,21.42
2018-04-10T13:21:37.256Z,18.90
2018-04-10T13:24:06.118Z,24.10
2018-04-10T13:26:34.627Z,21.02
2018-04-10T13:29:03.057Z,21.40
2018-04-10T13:31:31.870Z,21.35
2018-04-10T13:34:00.258Z,33.47
2018-04-10T13:36:28.731Z,11.85
2018-04-10T13:38:57.862Z,25.77
2018-04-10T13:41:26.289Z,14.40
2018-04-10T13:43:54.730Z,15.40
2018-04-10T13:46:23.837Z,10.48
2018-04-10T13:48:52.267Z,12.82
2018-04-10T13:51:20.667Z,18.77
2018-04-10T13:53:50.196Z,9.82
2018-04-10T13:56:18.613Z,6.97
2018-04-10T13:58:47.072Z,12.18
2018-04-10T14:01:15.799Z,10.27
2018-04-10T14:03:44.365Z,20.52
2018-04-10T14:06:12.775Z,21.90
2018-04-10T14:08:41.415Z,15.57
2018-04-10T14:11:09.965Z,16.30
2018-04-10T14:13:38.434Z,15.45
2018-04-10T14:16:06.850Z,19.12
2018-04-10T14:18:35.268Z,10.43
2018-04-10T14:21:03.790Z,14.70
2018-04-10T14:23:32.322Z,12.80
2018-04-10T14:26:00.798Z,17.40
2018-04-10T14:28:29.247Z,9.60
2018-04-10T14:30:58.829Z,20.55
2018-04-10T14:33:27.283Z,12.90
2018-04-10T14:35:55.710Z,12.93
2018-04-10T14:38:24.568Z,15.10
2018-04-10T14:40:52.992Z,7.28
2018-04-10T14:43:21.408Z,8.60
2018-04-10T14:45:49.930Z,12.30
2018-04-10T14:48:18.339Z,13.70
2018-04-10T14:50:46.809Z,11.50
2018-04-10T14:53:15.253Z,15.63
2018-04-10T14:55:43.777Z,28.17
2018-04-10T14:58:12.222Z,12.02
2018-04-10T15:00:40.671Z,6.55
2018-04-10T15:03:09.080Z,15.50
2018-04-10T15:05:37.560Z,17.80
2018-04-10T15:08:06.003Z,18.50
2018-04-10T15:10:34.470Z,13.05
2018-04-10T15:13:02.947Z,14.35
2018-04-10T15:15:31.498Z,24.65
2018-04-10T15:17:59.908Z,31.80
2018-04-10T15:20:28.387Z,7.78
2018-04-10T15:22:56.840Z,10.45
2018-04-10T15:25:25.333Z,8.63
2018-04-10T15:27:53.821Z,14.80
2018-04-10T15:30:22.253Z,21.92
2018-04-10T15:32:50.705Z,12.48
2018-04-10T15:35:19.116Z,20.98
2018-04-10T15:37:47.589Z,19.05
2018-04-10T15:40:16.046Z,12.07
2018-04-10T15:42:45.671Z,14.80
2018-04-10T15:45:14.134Z,21.57
2018-04-10T15:47:42.611Z,17.50
2018-04-10T15:50:11.040Z,20.80
2018-04-10T15:52:39.547Z,17.98
2018-04-10T15:55:07.968Z,13.77
2018-04-10T15:57:36.595Z,11.10
2018-04-10T16:00:05.124Z,16.53
2018-04-10T16:02:33.518Z,22.07
2018-04-10T16:05:01.914Z,22.67
2018-04-10T16:07:30.363Z,12.03
2018-04-10T16:09:58.764Z,25.13
2018-04-10T16:12:27.290Z,15.30
2018-04-10T16:14:55.714Z,16.50
2018-04-10T16:17:24.149Z,19.50
2018-04-10T16:19:52.541Z,12.37
2018-04-10T16:22:20.987Z,13.33
2018-04-10T16:24:49.425Z,12.60
2018-04-10T16:27:17.847Z,30.90
2018-04-10T16:29:46.330Z,25.33
2018-04-10T16:32:14.772Z,8.13
2018-04-10T16:34:43.178Z,7.23
2018-04-10T16:37:11.647Z,15.10
2018-04-10T16:39:40.076Z,11.10
2018-04-10T16:42:08.616Z,12.53
2018-04-10T16:44:37.799Z,16.27
2018-04-10T16:47:06.202Z,14.90
2018-04-10T16:49:34.665Z,10.93
2018-04-10T16:52:03.077Z,21.37
2018-04-10T16:54:31.514Z,10.73
2018-04-10T16:56:59.993Z,22.80
2018-04-10T16:59:28.415Z,30.20
2018-04-10T17:01:56.888Z,34.57
2018-04-10T17:04:25.302Z,25.00
2018-04-10T17:06:53.768Z,10.63
2018-04-10T17:09:22.164Z,51.10
2018-04-10T17:11:50.566Z,16.73
2018-04-10T17:14:19.039Z,15.03
2018-04-10T17:16:47.501Z,8.97
2018-04-10T17:19:15.919Z,11.23
2018-04-10T17:21:44.371Z,15.47
2018-04-10T17:24:12.847Z,35.57
2018-04-10T17:26:41.255Z,14.87
2018-04-10T17:29:09.739Z,11.03
2018-04-10T17:31:38.154Z,12.40
2018-04-10T17:34:06.613Z,7.43
2018-04-10T17:36:35.089Z,4.50
2018-04-10T17:39:03.899Z,9.33
2018-04-10T17:41:32.394Z,16.10
2018-04-10T17:44:00.775Z,17.33
2018-04-10T17:46:29.888Z,15.03
2018-04-10T17:48:58.334Z,19.47
2018-04-10T17:51:26.714Z,37.50
2018-04-10T17:53:55.192Z,32.30
2018-04-10T17:56:23.626Z,34.97
2018-04-10T17:58:52.138Z,23.77
2018-04-10T18:01:20.561Z,17.53
2018-04-10T18:03:48.952Z,17.10
2018-04-10T18:06:17.381Z,12.17
2018-04-10T18:08:45.827Z,15.30
2018-04-10T18:11:14.232Z,17.90
2018-04-10T18:13:42.710Z,13.17
2018-04-10T18:16:11.209Z,10.23
2018-04-10T18:18:39.614Z,22.33
2018-04-10T18:21:08.122Z,12.43
2018-04-10T18:23:36.663Z,29.10
2018-04-10T18:26:05.240Z,13.30
2018-04-10T18:28:33.670Z,14.73
2018-04-10T18:31:02.078Z,12.63
2018-04-10T18:33:30.483Z,14.03
2018-04-10T18:35:59.049Z,12.97
2018-04-10T18:38:27.478Z,19.10
2018-04-10T18:40:55.925Z,39.07
2018-04-10T18:43:24.332Z,43.23
2018-04-10T18:45:52.827Z,17.30
2018-04-10T18:48:21.218Z,18.57
2018-04-10T18:50:49.598Z,15.03
2018-04-10T18:53:18.022Z,34.73
2018-04-10T18:55:46.459Z,30.70
2018-04-10T18:58:14.922Z,10.57
2018-04-10T19:00:43.413Z,13.57
2018-04-10T19:03:11.807Z,13.23
2018-04-10T19:05:40.271Z,16.63
2018-04-10T19:08:08.667Z,20.33
2018-04-10T19:10:37.175Z,20.90
2018-04-10T19:13:05.608Z,20.80
2018-04-10T19:15:34.112Z,28.73
2018-04-10T19:18:02.698Z,18.07
2018-04-10T19:20:31.215Z,18.80
2018-04-10T19:22:59.610Z,22.10
2018-04-10T19:25:28.040Z,20.93
2018-04-10T19:27:56.445Z,34.63
2018-04-10T19:30:24.899Z,49.03
2018-04-10T19:32:53.351Z,49.53
2018-04-10T19:35:21.821Z,56.20
2018-04-10T19:37:50.200Z,39.90
2018-04-10T19:40:18.650Z,23.33
2018-04-10T19:42:47.075Z,36.63
2018-04-10T19:45:15.494Z,25.53
2018-04-10T19:47:43.926Z,19.10
2018-04-10T19:50:12.522Z,21.00
2018-04-10T19:52:41.079Z,14.70
2018-04-10T19:55:09.546Z,13.77
2018-04-10T19:57:37.960Z,14.63
2018-04-10T20:00:06.430Z,18.60
2018-04-10T20:02:34.858Z,12.37
2018-04-10T20:05:03.341Z,15.90
2018-04-10T20:07:31.746Z,12.17
2018-04-10T20:10:00.163Z,16.63
2018-04-10T20:12:28.591Z,14.63
2018-04-10T20:14:56.979Z,13.17
2018-04-10T20:17:25.424Z,17.80
2018-04-10T20:19:53.897Z,18.10
2018-04-10T20:22:22.383Z,12.13
2018-04-10T20:24:50.829Z,16.10
2018-04-10T20:27:19.248Z,14.50
2018-04-10T20:29:47.654Z,17.53
2018-04-10T20:32:16.057Z,11.40
2018-04-10T20:34:44.464Z,16.07
2018-04-10T20:37:12.842Z,13.93
2018-04-10T20:39:41.286Z,15.83
2018-04-10T20:42:09.682Z,18.73
2018-04-10T20:44:38.119Z,19.43
2018-04-10T20:47:06.622Z,15.70
2018-04-10T20:49:35.082Z,16.57
2018-04-10T20:52:03.510Z,15.83
2018-04-10T20:54:31.929Z,23.60
2018-04-10T20:57:00.336Z,16.90
2018-04-10T20:59:28.802Z,14.67
2018-04-10T21:01:57.186Z,16.77
2018-04-10T21:04:25.576Z,11.73
2018-04-10T21:06:54.003Z,14.47
2018-04-10T21:09:22.502Z,14.23
2018-04-10T21:11:50.943Z,19.13
2018-04-10T21:14:19.356Z,13.33
2018-04-10T21:16:47.769Z,12.73
2018-04-10T21:19:16.200Z,15.90
2018-04-10T21:21:44.702Z,13.10
2018-04-10T21:24:13.141Z,28.23
2018-04-10T21:26:41.595Z,14.40
2018-04-10T21:29:10.079Z,11.53
2018-04-10T21:31:38.553Z,15.53
2018-04-10T21:34:06.987Z,9.83
2018-04-10T21:36:35.438Z,11.47
2018-04-10T21:39:03.916Z,16.70
2018-04-10T21:41:32.334Z,8.97
2018-04-10T21:44:00.762Z,10.13
2018-04-10T21:46:29.156Z,7.97
2018-04-10T21:48:57.626Z,8.40
2018-04-10T21:51:26.013Z,8.20
2018-04-10T21:53:54.429Z,9.17
2018-04-10T21:56:22.852Z,10.03
2018-04-10T21:58:51.319Z,5.00
2018-04-10T22:01:19.931Z,10.53
2018-04-10T22:03:48.331Z,10.43
2018-04-10T22:06:16.863Z,13.63
2018-04-10T22:08:45.365Z,8.47
2018-04-10T22:11:13.775Z,9.37
2018-04-10T22:13:42.163Z,25.23
2018-04-10T22:16:10.603Z,16.77
2018-04-10T22:18:38.999Z,10.83
2018-04-10T22:21:07.400Z,11.70
2018-04-10T22:23:35.837Z,7.80
2018-04-10T22:26:04.249Z,8.33
2018-04-10T22:28:32.863Z,9.50
2018-04-10T22:31:01.293Z,11.83
2018-04-10T22:33:29.685Z,18.33
2018-04-10T22:35:58.366Z,13.90
2018-04-10T22:38:26.789Z,16.33
2018-04-10T22:40:55.167Z,12.97
2018-04-10T22:43:24.223Z,11.27
2018-04-10T22:45:52.639Z,10.00
2018-04-10T22:48:21.103Z,12.53
2018-04-10T22:50:49.846Z,8.57
2018-04-10T22:53:18.233Z,10.60
2018-04-10T22:55:46.635Z,12.37
2018-04-10T22:58:15.093Z,7.27
2018-04-10T23:00:49.091Z,11.57
2018-04-10T23:03:17.541Z,12.07
2018-04-10T23:05:45.993Z,14.00
2018-04-10T23:08:14.456Z,11.43
2018-04-10T23:10:42.930Z,11.63
2018-04-10T23:13:11.375Z,10.83
2018-04-10T23:15:39.830Z,10.90
2018-04-10T23:18:08.243Z,12.20
2018-04-10T23:20:36.692Z,7.23
2018-04-10T23:23:05.107Z,13.37
2018-04-10T23:25:33.643Z,10.30
2018-04-10T23:28:02.075Z,16.30
2018-04-10T23:30:30.491Z,12.17
2018-04-10T23:32:58.958Z,11.17
2018-04-10T23:35:27.385Z,10.90
2018-04-10T23:37:55.835Z,16.97
2018-04-10T23:40:24.240Z,12.30
2018-04-10T23:42:52.675Z,6.70
2018-04-10T23:45:21.088Z,8.77
2018-04-10T23:47:49.507Z,7.20
2018-04-10T23:50:17.892Z,12.07
2018-04-10T23:52:46.286Z,11.57
2018-04-10T23:55:14.679Z,8.70
2018-04-10T23:57:43.115Z,8.87
